createdAt,value
2022-09-02T00:03:37.473Z,100.00
2022-09-02T00:08:41.219Z,100.00
2022-09-02T00:13:45.196Z,100.00
2022-09-02T00:18:49.537Z,100.00
2022-09-02T00:23:53.041Z,100.00
2022-09-02T00:28:56.538Z,100.00
2022-09-02T00:34:00.090Z,100.00
2022-09-02T00:39:05.148Z,100.00
2022-09-02T00:44:12.749Z,100.00
2022-09-02T00:49:35.723Z,100.00
2022-09-02T00:54:45.505Z,100.00
2022-09-02T01:00:06.515Z,100.00
2022-09-02T01:05:12.594Z,100.00
2022-09-02T01:10:21.646Z,100.00
2022-09-02T01:15:25.608Z,100.00
2022-09-02T01:20:28.676Z,100.00
2022-09-02T01:25:34.756Z,100.00
2022-09-02T01:30:42.728Z,100.00
2022-09-02T01:35:45.992Z,100.00
2022-09-02T01:40:49.491Z,100.00
2022-09-02T01:45:55.282Z,100.00
2022-09-02T01:51:01.980Z,100.00
2022-09-02T01:56:05.086Z,100.00
2022-09-02T02:01:08.437Z,100.00
2022-09-02T02:06:14.817Z,100.00
2022-09-02T02:11:24.963Z,100.00
2022-09-02T02:16:28.219Z,100.00
2022-09-02T02:21:32.214Z,100.00
2022-09-02T02:26:36.436Z,100.00
2022-09-02T02:31:41.329Z,100.00
2022-09-02T02:36:44.600Z,100.00
2022-09-02T02:41:47.813Z,100.00
2022-09-02T02:46:51.094Z,100.00
2022-09-02T02:51:54.334Z,100.00
2022-09-02T02:56:57.344Z,100.00
2022-09-02T03:02:00.586Z,100.00
2022-09-02T03:07:05.948Z,100.00
2022-09-02T03:12:11.495Z,100.00
2022-09-02T03:17:14.586Z,100.00
2022-09-02T03:22:17.798Z,100.00
2022-09-02T03:27:20.808Z,100.00
2022-09-02T03:32:23.712Z,100.00
2022-09-02T03:37:31.121Z,100.00
2022-09-02T03:42:34.363Z,100.00
2022-09-02T03:47:40.654Z,100.00
2022-09-02T03:52:43.722Z,100.00
2022-09-02T03:57:47.243Z,100.00
2022-09-02T04:02:51.874Z,100.00
2022-09-02T04:07:55.505Z,100.00
2022-09-02T04:12:58.515Z,100.00
2022-09-02T04:18:01.416Z,100.00
2022-09-02T04:23:05.036Z,99.90
2022-09-02T04:28:08.293Z,98.53
2022-09-02T04:33:11.879Z,98.42
2022-09-02T04:38:15.500Z,93.12
2022-09-02T04:43:18.621Z,92.41
2022-09-02T04:48:22.251Z,94.16
2022-09-02T04:53:25.225Z,94.31
2022-09-02T04:58:28.744Z,94.61
2022-09-02T05:03:32.261Z,94.41
2022-09-02T05:08:39.056Z,89.50
2022-09-02T05:13:43.701Z,88.07
2022-09-02T05:18:47.015Z,82.64
2022-09-02T05:23:51.557Z,69.02
2022-09-02T05:28:57.740Z,67.46
2022-09-02T05:34:04.359Z,70.43
2022-09-02T05:39:07.745Z,73.77
2022-09-02T05:44:10.958Z,75.62
2022-09-02T05:49:21.744Z,77.86
2022-09-02T05:54:29.094Z,79.54
2022-09-02T05:59:34.036Z,79.94
2022-09-02T06:04:39.470Z,80.14
2022-09-02T06:09:44.723Z,81.10
2022-09-02T06:14:49.414Z,81.21
2022-09-02T06:19:52.570Z,80.13
2022-09-02T06:24:56.001Z,79.17
2022-09-02T06:29:59.019Z,78.74
2022-09-02T06:35:03.960Z,80.09
2022-09-02T06:40:07.777Z,81.31
2022-09-02T06:45:10.892Z,81.85
2022-09-02T06:50:13.899Z,81.66
2022-09-02T06:55:18.340Z,76.78
2022-09-02T07:00:21.551Z,67.40
2022-09-02T07:05:24.556Z,61.76
2022-09-02T07:10:27.667Z,58.07
2022-09-02T07:15:35.483Z,58.76
2022-09-02T07:20:38.696Z,60.21
2022-09-02T07:25:42.056Z,61.10
2022-09-02T07:30:45.773Z,64.07
2022-09-02T07:35:49.708Z,66.29
2022-09-02T07:40:57.107Z,66.57
2022-09-02T07:46:01.961Z,67.34
2022-09-02T07:51:06.052Z,65.62
2022-09-02T07:56:09.365Z,66.03
2022-09-02T08:01:14.414Z,64.77
2022-09-02T08:06:18.039Z,63.11
2022-09-02T08:11:32.771Z,63.14
2022-09-02T08:16:36.120Z,63.53
2022-09-02T08:21:39.251Z,62.81
2022-09-02T08:26:42.148Z,58.41
2022-09-02T08:31:45.207Z,56.11
2022-09-02T08:36:56.711Z,53.56
2022-09-02T08:42:14.004Z,53.02
2022-09-02T08:47:26.635Z,53.02
2022-09-02T08:53:00.055Z,53.35
2022-09-02T08:58:03.352Z,52.31
2022-09-02T09:03:28.494Z,53.71
2022-09-02T09:08:37.644Z,53.34
2022-09-02T09:14:01.748Z,51.65
2022-09-02T09:19:15.326Z,53.53
2022-09-02T09:24:18.789Z,53.78
2022-09-02T09:29:22.079Z,53.09
2022-09-02T09:34:25.546Z,51.94
2022-09-02T09:39:30.412Z,49.79
2022-09-02T09:44:45.676Z,49.07
2022-09-02T09:49:50.953Z,50.12
2022-09-02T09:55:24.351Z,52.10
2022-09-02T10:00:33.260Z,53.63
2022-09-02T10:05:39.916Z,55.26
2022-09-02T10:10:58.583Z,57.19
2022-09-02T10:16:12.815Z,56.09
2022-09-02T10:21:32.760Z,56.12
2022-09-02T10:26:43.546Z,52.72
2022-09-02T10:31:52.546Z,52.18
2022-09-02T10:37:17.217Z,53.01
2022-09-02T10:42:44.788Z,52.35
2022-09-02T10:48:03.257Z,52.77
2022-09-02T10:53:33.750Z,53.63
2022-09-02T10:58:46.744Z,53.06
2022-09-02T11:04:12.734Z,52.50
2022-09-02T11:09:48.574Z,53.34
2022-09-02T11:15:12.159Z,53.10
2022-09-02T11:20:41.998Z,52.14
2022-09-02T11:26:18.898Z,52.33
2022-09-02T11:31:42.679Z,52.19
2022-09-02T11:36:46.105Z,53.61
2022-09-02T11:42:01.256Z,54.10
2022-09-02T11:47:34.309Z,53.18
2022-09-02T11:53:04.865Z,53.35
2022-09-02T11:58:08.617Z,52.94
2022-09-02T12:03:38.280Z,52.15
2022-09-02T12:08:44.806Z,51.51
2022-09-02T12:18:58.505Z,50.83
2022-09-02T12:24:01.403Z,49.83
2022-09-02T12:29:12.500Z,51.53
2022-09-02T12:34:47.158Z,51.37
2022-09-02T12:39:54.660Z,51.53
2022-09-02T12:45:28.984Z,51.55
2022-09-02T12:50:44.606Z,51.18
2022-09-02T12:55:58.641Z,51.37
2022-09-02T13:01:06.528Z,51.84
2022-09-02T13:06:53.627Z,52.40
2022-09-02T13:12:02.514Z,52.24
2022-09-02T13:17:43.001Z,51.81
2022-09-02T13:23:13.097Z,51.68
2022-09-02T13:28:56.587Z,51.65
2022-09-02T13:34:11.352Z,52.29
2022-09-02T13:39:24.713Z,52.28
2022-09-02T13:44:29.807Z,52.02
2022-09-02T13:49:38.115Z,51.44
2022-09-02T13:54:46.765Z,50.75
2022-09-02T13:59:51.887Z,51.30
2022-09-02T14:04:57.437Z,50.88
2022-09-02T14:10:03.896Z,49.38
2022-09-02T14:15:10.623Z,48.80
2022-09-02T14:20:16.955Z,49.26
2022-09-02T14:25:27.213Z,49.10
2022-09-02T14:30:40.371Z,49.69
2022-09-02T14:36:15.686Z,49.09
2022-09-02T14:41:18.692Z,49.51
2022-09-02T14:46:27.543Z,51.96
2022-09-02T14:51:48.164Z,53.56
2022-09-02T14:56:53.525Z,55.33
2022-09-02T15:01:59.035Z,55.76
2022-09-02T15:07:02.089Z,56.03
2022-09-02T15:12:05.450Z,55.44
2022-09-02T15:17:12.212Z,55.93
2022-09-02T15:22:20.247Z,55.53
2022-09-02T15:27:23.334Z,55.94
2022-09-02T15:32:27.238Z,57.07
2022-09-02T15:37:30.470Z,56.74
2022-09-02T15:42:39.824Z,57.74
2022-09-02T15:47:42.933Z,59.20
2022-09-02T15:52:46.688Z,60.24
2022-09-02T15:57:49.866Z,61.09
2022-09-02T16:02:55.013Z,60.74
2022-09-02T16:07:58.273Z,60.02
2022-09-02T16:13:06.671Z,60.49
2022-09-02T16:18:09.676Z,60.03
2022-09-02T16:23:12.687Z,59.13
2022-09-02T16:28:15.793Z,59.13
2022-09-02T16:33:18.947Z,59.77
2022-09-02T16:38:22.009Z,60.23
2022-09-02T16:43:27.210Z,60.81
2022-09-02T16:48:35.915Z,61.23
2022-09-02T16:53:38.928Z,62.86
2022-09-02T16:58:42.126Z,64.60
2022-09-02T17:03:46.595Z,66.10
2022-09-02T17:08:50.699Z,67.17
2022-09-02T17:13:57.123Z,67.98
2022-09-02T17:19:02.486Z,69.03
2022-09-02T17:24:07.544Z,69.50
2022-09-02T17:29:26.223Z,69.43
2022-09-02T17:34:37.099Z,70.44
2022-09-02T17:39:40.164Z,71.23
2022-09-02T17:44:43.486Z,72.56
2022-09-02T17:49:47.676Z,73.53
2022-09-02T17:54:52.562Z,74.23
2022-09-02T18:00:02.238Z,74.70
2022-09-02T18:05:29.882Z,75.48
2022-09-02T18:10:37.132Z,76.74
2022-09-02T18:16:06.393Z,76.74
2022-09-02T18:21:32.599Z,77.91
2022-09-02T18:26:55.790Z,79.03
2022-09-02T18:32:06.074Z,79.79
2022-09-02T18:37:21.552Z,80.84
2022-09-02T18:42:50.780Z,82.66
2022-09-02T18:48:07.301Z,85.69
2022-09-02T18:53:13.477Z,86.22
2022-09-02T18:58:34.942Z,85.88
2022-09-02T19:03:38.339Z,86.16
2022-09-02T19:08:44.714Z,86.34
2022-09-02T19:13:53.589Z,86.41
2022-09-02T19:18:56.671Z,86.21
2022-09-02T19:24:02.447Z,86.67
2022-09-02T19:29:11.954Z,87.12
2022-09-02T19:34:16.502Z,87.19
2022-09-02T19:39:19.603Z,87.02
2022-09-02T19:44:22.969Z,87.50
2022-09-02T19:49:26.074Z,88.48
2022-09-02T19:54:29.490Z,89.27
2022-09-02T19:59:32.928Z,89.31
2022-09-02T20:04:37.132Z,90.22
2022-09-02T20:09:41.381Z,91.30
2022-09-02T20:14:47.251Z,91.41
2022-09-02T20:19:50.665Z,91.43
2022-09-02T20:24:55.420Z,91.66
2022-09-02T20:30:14.510Z,92.14
2022-09-02T20:35:20.309Z,92.83
2022-09-02T20:40:55.736Z,93.33
2022-09-02T20:46:06.012Z,93.45
2022-09-02T20:51:22.855Z,95.14
2022-09-02T20:56:41.457Z,96.42
2022-09-02T21:01:45.640Z,96.98
2022-09-02T21:06:57.992Z,96.32
2022-09-02T21:12:36.823Z,95.87
2022-09-02T21:17:49.554Z,95.55
2022-09-02T21:22:57.306Z,95.23
2022-09-02T21:28:19.009Z,95.27
2022-09-02T21:33:25.918Z,95.49
2022-09-02T21:38:59.259Z,95.61
2022-09-02T21:44:25.080Z,95.66
2022-09-02T21:49:56.981Z,96.18
2022-09-02T21:55:20.758Z,96.09
2022-09-02T22:00:24.385Z,95.76
2022-09-02T22:05:27.381Z,96.39
2022-09-02T22:10:41.975Z,96.98
2022-09-02T22:16:16.437Z,97.16
2022-09-02T22:21:40.199Z,98.05
2022-09-02T22:26:50.122Z,98.89
2022-09-02T22:31:57.238Z,99.01
2022-09-02T22:37:06.115Z,98.53
2022-09-02T22:42:24.784Z,98.00
2022-09-02T22:47:50.670Z,98.92
2022-09-02T22:52:57.018Z,99.01
2022-09-02T22:58:29.304Z,99.64
2022-09-02T23:03:44.236Z,99.93
2022-09-02T23:08:49.353Z,100.00
2022-09-02T23:14:16.863Z,100.00
2022-09-02T23:19:57.108Z,100.00
2022-09-02T23:25:22.131Z,100.00
2022-09-02T23:30:30.012Z,100.00
2022-09-02T23:35:36.353Z,100.00
2022-09-02T23:40:43.954Z,100.00
2022-09-02T23:45:51.438Z,100.00
2022-09-02T23:51:17.714Z,100.00
2022-09-02T23:56:49.610Z,100.00
